createdAt,value
2022-10-10T00:02:25.729Z,97157.22
2022-10-10T00:04:53.207Z,97160.78
2022-10-10T00:07:20.319Z,97154.25
2022-10-10T00:09:47.172Z,97142.22
2022-10-10T00:12:13.777Z,97150.59
2022-10-10T00:14:40.186Z,97151.19
2022-10-10T00:17:06.595Z,97146.72
2022-10-10T00:19:33.040Z,97148.19
2022-10-10T00:21:59.470Z,97151.13
2022-10-10T00:24:25.958Z,97146.72
2022-10-10T00:26:52.342Z,97143.09
2022-10-10T00:29:18.769Z,97151.06
2022-10-10T00:31:45.156Z,97138.28
2022-10-10T00:34:12.756Z,97144.56
2022-10-10T00:36:39.164Z,97130.94
2022-10-10T00:39:05.593Z,97134.63
2022-10-10T00:41:32.012Z,97134.50
2022-10-10T00:44:07.759Z,97125.25
2022-10-10T00:46:34.351Z,97123.09
2022-10-10T00:49:00.895Z,97125.91
2022-10-10T00:51:27.344Z,97119.16
2022-10-10T00:53:56.610Z,97112.25
2022-10-10T00:56:25.180Z,97119.34
2022-10-10T00:58:52.566Z,97119.72
2022-10-10T01:01:19.057Z,97113.72
2022-10-10T01:03:45.562Z,97112.06
2022-10-10T01:06:12.028Z,97103.00
2022-10-10T01:08:38.491Z,97110.91
2022-10-10T01:11:14.115Z,97116.22
2022-10-10T01:13:52.567Z,97117.03
2022-10-10T01:16:22.184Z,97112.66
2022-10-10T01:18:54.718Z,97118.09
2022-10-10T01:21:36.560Z,97117.75
2022-10-10T01:24:21.454Z,97119.63
2022-10-10T01:27:06.672Z,97123.72
2022-10-10T01:29:33.765Z,97109.03
2022-10-10T01:32:29.616Z,97108.84
2022-10-10T01:34:58.532Z,97107.28
2022-10-10T01:37:36.379Z,97100.50
2022-10-10T01:40:32.268Z,97109.38
2022-10-10T01:42:59.834Z,97105.41
2022-10-10T01:45:26.790Z,97101.84
2022-10-10T01:47:53.774Z,97099.41
2022-10-10T01:50:21.012Z,97099.13
2022-10-10T01:52:50.003Z,97083.59
2022-10-10T01:55:39.914Z,97094.31
2022-10-10T01:58:09.347Z,97089.16
2022-10-10T02:00:45.933Z,97085.16
2022-10-10T02:03:19.818Z,97082.97
2022-10-10T02:05:58.324Z,97088.41
2022-10-10T02:08:28.018Z,97082.97
2022-10-10T02:11:21.083Z,97093.72
2022-10-10T02:13:52.060Z,97085.78
2022-10-10T02:16:19.566Z,97077.63
2022-10-10T02:18:46.224Z,97080.38
2022-10-10T02:21:12.888Z,97075.13
2022-10-10T02:23:40.822Z,97071.03
2022-10-10T02:26:07.334Z,97071.84
2022-10-10T02:28:37.226Z,97067.03
2022-10-10T02:31:05.803Z,97071.47
2022-10-10T02:33:33.840Z,97067.09
2022-10-10T02:36:00.577Z,97078.47
2022-10-10T02:38:27.045Z,97066.66
2022-10-10T02:40:53.467Z,97064.94
2022-10-10T02:43:19.885Z,97066.47
2022-10-10T02:45:46.389Z,97066.81
2022-10-10T02:48:12.824Z,97060.22
2022-10-10T02:50:39.264Z,97060.59
2022-10-10T02:53:05.729Z,97057.78
2022-10-10T02:55:32.138Z,97050.34
2022-10-10T02:57:58.583Z,97055.94
2022-10-10T03:00:24.984Z,97053.97
2022-10-10T03:02:51.646Z,97052.66
2022-10-10T03:05:18.326Z,97051.69
2022-10-10T03:07:44.729Z,97048.13
2022-10-10T03:10:11.215Z,97045.53
2022-10-10T03:12:37.649Z,97054.56
2022-10-10T03:15:09.158Z,97046.22
2022-10-10T03:17:37.773Z,97044.47
2022-10-10T03:20:04.370Z,97045.38
2022-10-10T03:22:30.814Z,97040.06
2022-10-10T03:24:57.203Z,97042.72
2022-10-10T03:27:23.623Z,97046.00
2022-10-10T03:29:50.007Z,97043.09
2022-10-10T03:32:16.448Z,97044.47
2022-10-10T03:34:42.864Z,97038.09
2022-10-10T03:37:09.487Z,97036.97
2022-10-10T03:39:35.904Z,97041.41
2022-10-10T03:42:02.353Z,97038.34
2022-10-10T03:44:28.751Z,97041.25
2022-10-10T03:46:55.214Z,97043.19
2022-10-10T03:49:21.628Z,97038.22
2022-10-10T03:51:48.107Z,97044.47
2022-10-10T03:54:14.529Z,97037.91
2022-10-10T03:56:40.955Z,97035.72
2022-10-10T03:59:07.395Z,97040.28
2022-10-10T04:01:33.876Z,97036.56
2022-10-10T04:04:00.508Z,97030.47
2022-10-10T04:06:28.255Z,97031.28
2022-10-10T04:08:54.699Z,97029.66
2022-10-10T04:11:21.143Z,97038.28
2022-10-10T04:13:47.701Z,97027.13
2022-10-10T04:16:14.112Z,97025.91
2022-10-10T04:18:40.549Z,97022.22
2022-10-10T04:21:06.993Z,97017.88
2022-10-10T04:23:33.478Z,97022.41
2022-10-10T04:25:59.936Z,97027.38
2022-10-10T04:28:26.475Z,97034.31
2022-10-10T04:30:52.967Z,97028.09
2022-10-10T04:33:19.390Z,97027.44
2022-10-10T04:35:47.416Z,97029.09
2022-10-10T04:38:13.876Z,97026.63
2022-10-10T04:40:40.275Z,97023.13
2022-10-10T04:43:06.694Z,97021.41
2022-10-10T04:45:37.325Z,97013.59
2022-10-10T04:48:04.168Z,97018.16
2022-10-10T04:50:30.602Z,97025.44
2022-10-10T04:52:57.054Z,97018.97
2022-10-10T04:55:23.438Z,97028.34
2022-10-10T04:57:49.870Z,97016.38
2022-10-10T05:00:16.340Z,97014.34
2022-10-10T05:02:42.718Z,97021.53
2022-10-10T05:05:09.294Z,97017.63
2022-10-10T05:07:35.715Z,97015.47
2022-10-10T05:10:02.525Z,97023.34
2022-10-10T05:12:28.906Z,97023.69
2022-10-10T05:14:55.359Z,97017.78
2022-10-10T05:17:21.738Z,97018.47
2022-10-10T05:19:48.228Z,97017.84
2022-10-10T05:22:14.637Z,97010.75
2022-10-10T05:24:41.134Z,97015.00
2022-10-10T05:27:07.558Z,97009.63
2022-10-10T05:29:34.011Z,97015.22
2022-10-10T05:32:00.491Z,97020.47
2022-10-10T05:34:26.954Z,97021.78
2022-10-10T05:36:53.363Z,97020.81
2022-10-10T05:39:19.830Z,97022.81
2022-10-10T05:41:46.349Z,97026.47
2022-10-10T05:44:12.746Z,97024.97
2022-10-10T05:46:39.149Z,97022.38
2022-10-10T05:49:05.591Z,97019.94
2022-10-10T05:51:32.009Z,97022.22
2022-10-10T05:53:58.524Z,97020.88
2022-10-10T05:56:25.159Z,97023.53
2022-10-10T05:58:51.751Z,97031.69
2022-10-10T06:01:18.124Z,97018.78
2022-10-10T06:03:44.721Z,97020.69
2022-10-10T06:06:11.140Z,97018.16
2022-10-10T06:08:37.600Z,97009.56
2022-10-10T06:11:05.487Z,97013.19
2022-10-10T06:13:32.063Z,97011.19
2022-10-10T06:15:58.496Z,97015.75
2022-10-10T06:18:25.030Z,97011.16
2022-10-10T06:20:51.580Z,97013.31
2022-10-10T06:23:18.249Z,97022.31
2022-10-10T06:25:44.700Z,97019.25
2022-10-10T06:28:11.416Z,97025.44
2022-10-10T06:30:44.491Z,97023.63
2022-10-10T06:33:11.769Z,97022.72
2022-10-10T06:35:38.966Z,97019.91
2022-10-10T06:38:05.382Z,97029.50
2022-10-10T06:40:32.332Z,97030.44
2022-10-10T06:42:58.756Z,97032.97
2022-10-10T06:45:25.762Z,97029.50
2022-10-10T06:47:52.155Z,97028.50
2022-10-10T06:50:18.554Z,97030.75
2022-10-10T06:52:44.971Z,97035.91
2022-10-10T06:55:11.406Z,97035.72
2022-10-10T06:57:37.851Z,97041.78
2022-10-10T07:00:04.692Z,97037.28
2022-10-10T07:02:31.186Z,97039.97
2022-10-10T07:04:57.615Z,97037.84
2022-10-10T07:07:24.004Z,97026.63
2022-10-10T07:09:50.465Z,97042.44
2022-10-10T07:12:16.892Z,97048.47
2022-10-10T07:14:43.316Z,97043.31
2022-10-10T07:17:09.704Z,97043.19
2022-10-10T07:19:39.199Z,97040.75
2022-10-10T07:22:05.618Z,97039.44
2022-10-10T07:24:32.110Z,97050.13
2022-10-10T07:27:03.676Z,97036.63
2022-10-10T07:29:32.976Z,97043.34
2022-10-10T07:31:59.430Z,97042.00
2022-10-10T07:34:25.838Z,97034.06
2022-10-10T07:36:52.235Z,97037.88
2022-10-10T07:39:19.421Z,97042.53
2022-10-10T07:41:45.819Z,97052.78
2022-10-10T07:44:12.285Z,97059.38
2022-10-10T07:46:38.836Z,97057.41
2022-10-10T07:49:05.278Z,97049.09
2022-10-10T07:51:31.691Z,97048.75
2022-10-10T07:53:58.242Z,97043.66
2022-10-10T07:56:25.088Z,97041.63
2022-10-10T07:58:51.509Z,97033.53
2022-10-10T08:01:18.057Z,97041.31
2022-10-10T08:03:44.521Z,97036.88
2022-10-10T08:06:12.626Z,97031.59
2022-10-10T08:08:48.579Z,97033.63
2022-10-10T08:11:18.386Z,97030.53
2022-10-10T08:13:44.778Z,97023.19
2022-10-10T08:16:11.313Z,97031.91
2022-10-10T08:18:37.737Z,97024.47
2022-10-10T08:21:06.378Z,97032.19
2022-10-10T08:23:33.075Z,97035.03
2022-10-10T08:26:00.103Z,97038.03
2022-10-10T08:28:26.837Z,97038.69
2022-10-10T08:30:53.304Z,97034.25
2022-10-10T08:33:19.764Z,97037.03
2022-10-10T08:35:46.176Z,97033.38
2022-10-10T08:38:14.766Z,97042.38
2022-10-10T08:40:42.321Z,97037.13
2022-10-10T08:43:11.054Z,97033.88
2022-10-10T08:45:37.585Z,97029.81
2022-10-10T08:48:05.877Z,97031.59
2022-10-10T08:50:48.620Z,97034.88
2022-10-10T08:53:15.013Z,97041.69
2022-10-10T08:55:43.884Z,97032.72
2022-10-10T08:58:21.120Z,97045.38
2022-10-10T09:00:48.784Z,97037.31
2022-10-10T09:03:20.216Z,97043.81
2022-10-10T09:05:49.738Z,97042.09
2022-10-10T09:08:26.248Z,97042.00
2022-10-10T09:10:59.607Z,97039.66
2022-10-10T09:13:36.744Z,97043.63
2022-10-10T09:16:12.291Z,97050.59
2022-10-10T09:19:00.592Z,97055.03
2022-10-10T09:21:31.657Z,97051.78
2022-10-10T09:24:18.262Z,97045.41
2022-10-10T09:26:49.377Z,97042.97
2022-10-10T09:29:26.650Z,97038.06
2022-10-10T09:32:01.151Z,97035.69
2022-10-10T09:34:41.071Z,97030.59
2022-10-10T09:37:24.370Z,97031.63
2022-10-10T09:40:04.726Z,97033.25
2022-10-10T09:42:35.211Z,97042.22
2022-10-10T09:45:01.990Z,97033.28
2022-10-10T09:47:28.456Z,97031.94
2022-10-10T09:49:54.917Z,97026.03
2022-10-10T09:52:28.735Z,97028.13
2022-10-10T09:55:15.379Z,97031.97
2022-10-10T09:57:41.790Z,97034.94
2022-10-10T10:00:27.971Z,97036.97
2022-10-10T10:03:03.901Z,97037.28
2022-10-10T10:05:30.306Z,97046.97
2022-10-10T10:07:56.787Z,97044.50
2022-10-10T10:10:24.413Z,97042.94
2022-10-10T10:12:50.992Z,97038.91
2022-10-10T10:15:24.785Z,97043.72
2022-10-10T10:18:11.629Z,97045.69
2022-10-10T10:20:39.095Z,97046.75
2022-10-10T10:23:06.341Z,97047.38
2022-10-10T10:25:35.473Z,97057.56
2022-10-10T10:28:11.281Z,97049.28
2022-10-10T10:30:38.168Z,97065.56
2022-10-10T10:33:10.663Z,97057.91
2022-10-10T10:35:44.494Z,97062.22
2022-10-10T10:38:29.884Z,97058.75
2022-10-10T10:40:59.266Z,97059.59
2022-10-10T10:43:25.665Z,97063.41
2022-10-10T10:45:59.308Z,97061.75
2022-10-10T10:48:44.574Z,97066.13
2022-10-10T10:51:26.268Z,97078.09
2022-10-10T10:53:52.628Z,97068.81
2022-10-10T10:56:34.443Z,97078.75
2022-10-10T10:59:40.221Z,97072.31
2022-10-10T11:02:31.267Z,97079.81
2022-10-10T11:05:19.458Z,97076.13
2022-10-10T11:07:51.087Z,97068.97
2022-10-10T11:10:21.199Z,97072.97
2022-10-10T11:12:53.946Z,97068.00
2022-10-10T11:16:04.748Z,97065.13
2022-10-10T11:18:27.845Z,97070.53
2022-10-10T11:21:00.973Z,97063.41
2022-10-10T11:23:49.167Z,97061.25
2022-10-10T11:26:20.748Z,97061.66
2022-10-10T11:28:49.693Z,97061.44
2022-10-10T11:31:24.622Z,97061.56
2022-10-10T11:33:54.351Z,97072.91
2022-10-10T11:36:23.599Z,97067.84
2022-10-10T11:38:57.697Z,97074.69
2022-10-10T11:41:26.008Z,97081.56
2022-10-10T11:44:11.431Z,97084.94
2022-10-10T11:46:50.792Z,97086.44
2022-10-10T11:49:22.418Z,97085.19
2022-10-10T11:52:15.007Z,97085.38
2022-10-10T11:54:45.699Z,97080.16
2022-10-10T11:57:13.194Z,97087.34
2022-10-10T11:59:43.955Z,97088.63
2022-10-10T12:02:24.420Z,97089.75
2022-10-10T12:04:53.620Z,97087.44
2022-10-10T12:07:23.065Z,97081.28
2022-10-10T12:09:57.008Z,97088.63
2022-10-10T12:12:25.212Z,97081.91
2022-10-10T12:14:54.279Z,97076.97
2022-10-10T12:17:22.051Z,97077.44
2022-10-10T12:19:48.698Z,97081.66
2022-10-10T12:22:22.326Z,97079.06
2022-10-10T12:25:07.501Z,97091.00
2022-10-10T12:27:44.096Z,97086.75
2022-10-10T12:30:15.197Z,97086.28
2022-10-10T12:32:42.661Z,97084.97
2022-10-10T12:35:28.052Z,97076.56
2022-10-10T12:38:07.379Z,97075.25
2022-10-10T12:40:33.972Z,97076.13
2022-10-10T12:43:01.778Z,97065.13
2022-10-10T12:45:31.301Z,97078.09
2022-10-10T12:48:06.958Z,97069.56
2022-10-10T12:50:37.659Z,97075.34
2022-10-10T12:53:05.083Z,97076.41
2022-10-10T12:55:41.977Z,97071.91
2022-10-10T12:58:26.187Z,97076.59
2022-10-10T13:00:53.955Z,97079.38
2022-10-10T13:03:20.358Z,97073.06
2022-10-10T13:05:46.887Z,97075.28
2022-10-10T13:08:14.708Z,97079.94
2022-10-10T13:10:41.148Z,97078.81
2022-10-10T13:13:17.430Z,97075.50
2022-10-10T13:15:57.600Z,97081.00
2022-10-10T13:18:37.672Z,97078.78
2022-10-10T13:21:05.409Z,97080.06
2022-10-10T13:23:32.239Z,97085.69
2022-10-10T13:25:58.986Z,97082.72
2022-10-10T13:28:25.481Z,97087.56
2022-10-10T13:30:51.918Z,97079.94
2022-10-10T13:33:19.345Z,97085.72
2022-10-10T13:35:46.135Z,97089.97
2022-10-10T13:38:13.175Z,97088.13
2022-10-10T13:40:39.780Z,97084.75
2022-10-10T13:43:06.178Z,97084.69
2022-10-10T13:45:35.465Z,97072.69
2022-10-10T13:48:01.917Z,97078.16
2022-10-10T13:50:32.195Z,97064.00
2022-10-10T13:53:18.261Z,97081.81
2022-10-10T13:55:44.682Z,97083.19
2022-10-10T13:58:11.121Z,97089.81
2022-10-10T14:00:37.535Z,97092.81
2022-10-10T14:03:14.509Z,97094.34
2022-10-10T14:05:42.307Z,97086.72
2022-10-10T14:08:21.910Z,97092.22
2022-10-10T14:10:59.668Z,97090.91
2022-10-10T14:13:26.465Z,97104.75
2022-10-10T14:15:52.952Z,97106.03
2022-10-10T14:18:23.759Z,97101.50
2022-10-10T14:20:50.495Z,97103.16
2022-10-10T14:23:17.308Z,97106.78
2022-10-10T14:25:45.213Z,97103.38
2022-10-10T14:28:19.551Z,97109.66
2022-10-10T14:30:46.043Z,97114.19
2022-10-10T14:33:12.990Z,97124.88
2022-10-10T14:35:39.712Z,97125.13
2022-10-10T14:38:06.204Z,97115.66
2022-10-10T14:40:34.715Z,97115.72
2022-10-10T14:43:01.126Z,97116.56
2022-10-10T14:45:27.992Z,97122.81
2022-10-10T14:47:54.619Z,97114.13
2022-10-10T14:50:37.007Z,97108.94
2022-10-10T14:53:04.132Z,97111.81
2022-10-10T14:55:30.653Z,97117.81
2022-10-10T14:57:57.073Z,97119.78
2022-10-10T15:00:24.544Z,97121.91
2022-10-10T15:02:51.160Z,97114.53
2022-10-10T15:05:17.708Z,97118.56
2022-10-10T15:07:44.564Z,97117.13
2022-10-10T15:12:58.436Z,97131.88
2022-10-10T15:15:24.831Z,97131.06
2022-10-10T15:17:51.257Z,97130.97
2022-10-10T15:20:17.711Z,97128.38
2022-10-10T15:22:46.500Z,97132.91
2022-10-10T15:25:12.979Z,97125.41
2022-10-10T15:27:39.402Z,97138.03
2022-10-10T15:30:06.519Z,97131.31
2022-10-10T15:32:32.914Z,97138.72
2022-10-10T15:34:59.391Z,97144.88
2022-10-10T15:37:26.200Z,97148.59
2022-10-10T15:39:52.635Z,97160.97
2022-10-10T15:42:23.158Z,97174.19
2022-10-10T15:44:50.280Z,97169.75
2022-10-10T15:47:17.563Z,97180.59
2022-10-10T15:49:44.006Z,97179.56
2022-10-10T15:52:10.475Z,97184.19
2022-10-10T15:54:36.955Z,97177.06
2022-10-10T15:57:03.492Z,97181.81
2022-10-10T15:59:30.034Z,97183.09
2022-10-10T16:01:56.593Z,97182.72
2022-10-10T16:04:23.094Z,97184.44
2022-10-10T16:06:54.479Z,97180.78
2022-10-10T16:09:28.644Z,97186.13
2022-10-10T16:11:55.451Z,97193.75
2022-10-10T16:14:21.848Z,97201.84
2022-10-10T16:16:48.337Z,97196.50
2022-10-10T16:19:14.800Z,97208.19
2022-10-10T16:21:41.226Z,97204.13
2022-10-10T16:24:08.539Z,97213.97
2022-10-10T16:26:36.893Z,97224.03
2022-10-10T16:29:03.898Z,97226.31
2022-10-10T16:31:30.317Z,97230.66
2022-10-10T16:33:57.264Z,97231.81
2022-10-10T16:36:24.625Z,97243.66
2022-10-10T16:38:51.181Z,97242.84
2022-10-10T16:41:35.618Z,97256.44
2022-10-10T16:44:04.524Z,97252.84
2022-10-10T16:46:30.992Z,97257.00
2022-10-10T16:48:58.400Z,97258.50
2022-10-10T16:51:25.326Z,97258.34
2022-10-10T16:53:51.832Z,97270.63
2022-10-10T16:56:19.507Z,97271.44
2022-10-10T16:58:46.187Z,97284.19
2022-10-10T17:01:14.297Z,97290.38
2022-10-10T17:03:41.151Z,97290.38
2022-10-10T17:06:13.205Z,97295.72
2022-10-10T17:08:39.811Z,97296.56
2022-10-10T17:11:06.373Z,97303.34
2022-10-10T17:13:34.416Z,97306.38
2022-10-10T17:16:25.015Z,97312.56
2022-10-10T17:18:50.332Z,97329.31
2022-10-10T17:21:17.631Z,97331.41
2022-10-10T17:23:44.133Z,97336.50
2022-10-10T17:26:11.739Z,97336.72
2022-10-10T17:28:38.349Z,97340.81
2022-10-10T17:31:12.431Z,97343.06
2022-10-10T17:33:39.023Z,97351.03
2022-10-10T17:36:09.566Z,97350.63
2022-10-10T17:38:40.064Z,97358.41
2022-10-10T17:41:07.138Z,97364.13
2022-10-10T17:43:33.666Z,97365.34
2022-10-10T17:46:15.469Z,97366.19
2022-10-10T17:48:47.611Z,97370.69
2022-10-10T17:51:14.823Z,97378.03
2022-10-10T17:53:41.252Z,97375.78
2022-10-10T17:56:15.704Z,97387.41
2022-10-10T17:58:42.509Z,97383.34
2022-10-10T18:01:09.143Z,97390.72
2022-10-10T18:03:35.534Z,97388.66
2022-10-10T18:06:09.911Z,97399.88
2022-10-10T18:08:36.304Z,97403.75
2022-10-10T18:11:03.193Z,97403.56
2022-10-10T18:13:29.834Z,97403.97
2022-10-10T18:16:09.245Z,97406.00
2022-10-10T18:18:36.275Z,97414.78
2022-10-10T18:21:04.270Z,97412.94
2022-10-10T18:23:31.190Z,97421.31
2022-10-10T18:26:01.504Z,97425.38
2022-10-10T18:28:31.659Z,97434.56
2022-10-10T18:30:58.143Z,97437.22
2022-10-10T18:33:24.656Z,97443.75
2022-10-10T18:35:51.074Z,97445.78
2022-10-10T18:38:17.509Z,97448.19
2022-10-10T18:40:43.993Z,97455.34
2022-10-10T18:43:10.901Z,97460.03
2022-10-10T18:45:37.326Z,97459.22
2022-10-10T18:48:03.818Z,97457.16
2022-10-10T18:50:30.411Z,97461.81
2022-10-10T18:52:57.994Z,97474.25
2022-10-10T18:55:30.156Z,97476.69
2022-10-10T18:57:57.755Z,97472.41
2022-10-10T19:00:27.061Z,97481.56
2022-10-10T19:02:53.570Z,97472.41
2022-10-10T19:05:20.090Z,97472.53
2022-10-10T19:07:46.541Z,97474.94
2022-10-10T19:10:13.215Z,97474.75
2022-10-10T19:12:42.881Z,97484.94
2022-10-10T19:15:11.591Z,97489.63
2022-10-10T19:17:38.003Z,97489.00
2022-10-10T19:20:05.624Z,97500.97
2022-10-10T19:22:32.112Z,97507.75
2022-10-10T19:24:58.537Z,97515.72
2022-10-10T19:27:24.983Z,97537.94
2022-10-10T19:29:51.372Z,97518.19
2022-10-10T19:32:17.788Z,97539.16
2022-10-10T19:34:45.610Z,97543.94
2022-10-10T19:37:12.025Z,97548.06
2022-10-10T19:39:38.452Z,97561.41
2022-10-10T19:42:04.879Z,97556.09
2022-10-10T19:44:31.246Z,97568.41
2022-10-10T19:46:59.563Z,97575.56
2022-10-10T19:49:25.984Z,97582.56
2022-10-10T19:51:52.926Z,97592.41
2022-10-10T19:54:19.328Z,97602.06
2022-10-10T19:56:45.786Z,97600.31
2022-10-10T19:59:12.193Z,97617.84
2022-10-10T20:01:38.654Z,97612.69
2022-10-10T20:04:05.186Z,97625.31
2022-10-10T20:06:31.620Z,97629.34
2022-10-10T20:08:58.054Z,97632.81
2022-10-10T20:11:26.306Z,97625.16
2022-10-10T20:13:54.892Z,97641.00
2022-10-10T20:16:21.691Z,97643.47
2022-10-10T20:18:48.137Z,97637.72
2022-10-10T20:21:17.089Z,97640.59
2022-10-10T20:23:44.187Z,97648.19
2022-10-10T20:26:11.680Z,97651.81
2022-10-10T20:28:38.270Z,97644.34
2022-10-10T20:31:04.771Z,97649.16
2022-10-10T20:33:31.234Z,97655.63
2022-10-10T20:36:00.319Z,97662.53
2022-10-10T20:38:26.739Z,97668.47
2022-10-10T20:40:53.215Z,97677.78
2022-10-10T20:43:19.623Z,97678.94
2022-10-10T20:45:46.073Z,97691.13
2022-10-10T20:48:12.524Z,97701.38
2022-10-10T20:50:38.937Z,97700.03
2022-10-10T20:53:06.051Z,97698.06
2022-10-10T20:55:32.580Z,97696.75
2022-10-10T20:57:59.081Z,97701.44
2022-10-10T21:00:25.524Z,97702.44
2022-10-10T21:02:52.859Z,97709.91
2022-10-10T21:05:19.290Z,97707.63
2022-10-10T21:07:46.098Z,97707.47
2022-10-10T21:10:12.491Z,97714.94
2022-10-10T21:12:38.911Z,97721.53
2022-10-10T21:15:05.529Z,97712.47
2022-10-10T21:17:32.251Z,97723.00
2022-10-10T21:19:58.678Z,97722.50
2022-10-10T21:22:25.150Z,97726.59
2022-10-10T21:24:51.612Z,97737.47
2022-10-10T21:27:18.085Z,97730.88
2022-10-10T21:29:44.447Z,97731.03
2022-10-10T21:32:10.859Z,97729.19
2022-10-10T21:34:37.319Z,97738.25
2022-10-10T21:37:03.791Z,97738.06
2022-10-10T21:39:30.215Z,97739.34
2022-10-10T21:41:56.647Z,97746.53
2022-10-10T21:44:23.094Z,97748.84
2022-10-10T21:46:51.211Z,97746.50
2022-10-10T21:49:17.599Z,97754.06
2022-10-10T21:51:45.668Z,97743.66
2022-10-10T21:54:12.210Z,97750.69
2022-10-10T21:56:38.831Z,97751.63
2022-10-10T21:59:05.625Z,97750.25
2022-10-10T22:01:35.009Z,97761.72
2022-10-10T22:04:01.887Z,97754.59
2022-10-10T22:06:28.385Z,97758.59
2022-10-10T22:08:56.207Z,97753.91
2022-10-10T22:11:23.714Z,97764.28
2022-10-10T22:13:50.317Z,97767.44
2022-10-10T22:16:16.903Z,97769.84
2022-10-10T22:18:43.395Z,97767.81
2022-10-10T22:21:11.723Z,97769.41
2022-10-10T22:23:38.351Z,97769.84
2022-10-10T22:26:07.517Z,97769.09
2022-10-10T22:28:34.107Z,97770.38
2022-10-10T22:31:04.689Z,97778.38
2022-10-10T22:33:31.159Z,97781.66
2022-10-10T22:35:57.579Z,97775.34
2022-10-10T22:38:24.097Z,97776.75
2022-10-10T22:40:50.519Z,97782.13
2022-10-10T22:43:16.967Z,97782.72
2022-10-10T22:45:44.567Z,97777.66
2022-10-10T22:48:11.159Z,97786.78
2022-10-10T22:50:38.628Z,97788.44
2022-10-10T22:53:06.209Z,97784.91
2022-10-10T22:55:33.647Z,97786.47
2022-10-10T22:58:00.145Z,97783.41
2022-10-10T23:00:26.631Z,97782.47
2022-10-10T23:02:56.213Z,97792.97
2022-10-10T23:05:22.636Z,97791.84
2022-10-10T23:07:49.086Z,97797.69
2022-10-10T23:10:15.554Z,97787.63
2022-10-10T23:12:41.959Z,97796.56
2022-10-10T23:15:08.475Z,97799.34
2022-10-10T23:17:36.010Z,97804.03
2022-10-10T23:20:02.516Z,97804.72
2022-10-10T23:22:28.931Z,97803.25
2022-10-10T23:24:55.340Z,97802.84
2022-10-10T23:27:21.790Z,97804.63
2022-10-10T23:29:48.207Z,97807.13
2022-10-10T23:32:14.620Z,97815.13
2022-10-10T23:34:41.057Z,97806.97
2022-10-10T23:37:07.504Z,97812.47
2022-10-10T23:39:33.937Z,97817.56
2022-10-10T23:42:00.386Z,97816.22
2022-10-10T23:44:26.794Z,97810.16
2022-10-10T23:46:53.205Z,97812.06
2022-10-10T23:49:19.663Z,97814.13
2022-10-10T23:51:46.122Z,97815.78
2022-10-10T23:54:12.571Z,97821.44
2022-10-10T23:56:38.954Z,97825.03
2022-10-10T23:59:05.362Z,97824.19
